Time;durP1;ratioP1;P1;durP2;ratioP2;P2;SDS_P1;SDS_P2;PMS_P1;PMS_P2;Temp;Humidity;BMP_temperature;BMP_pressure;BME280_temperature;BME280_humidity;BME280_pressure;Samples;Min_cycle;Max_cycle;Signal;HPM_P1;HPM_P2
2023/09/06 00:01:50;;;;;;;;;;;;;;;18.72;72.67;101357.69;5019135;28;2270;-76
2023/09/06 00:04:42;;;;;;;;;;;;;;;18.71;72.66;101372.41;5016056;28;3744;-77
2023/09/06 00:07:34;;;;;;;;;;;;;;;18.70;72.84;101361.75;5017443;28;2373;-78
2023/09/06 00:10:26;;;;;;;;;;;;;;;18.68;72.68;101369.34;5017542;28;2546;-75
2023/09/06 00:13:19;;;;;;;;;;;;;;;18.68;72.87;101359.28;5022345;28;2196;-77
2023/09/06 00:16:10;;;;;;;;;;;;;;;18.66;72.55;101355.16;5030530;28;2156;-77
2023/09/06 00:19:02;;;;;;;;;;;;;;;18.66;72.54;101379.72;5033090;28;1627;-77
2023/09/06 00:21:54;;;;;;;;;;;;;;;18.65;72.74;101388.94;5024217;28;2312;-76
2023/09/06 00:24:46;;;;;;;;;;;;;;;18.63;72.54;101388.41;5016182;28;2428;-77
2023/09/06 00:27:38;;;;;;;;;;;;;;;18.61;72.77;101384.00;5020083;28;2236;-77
2023/09/06 00:30:30;;;;;;;;;;;;;;;18.61;72.54;101392.19;5029030;27;1820;-77
2023/09/06 00:33:23;;;;;;;;;;;;;;;18.59;72.77;101397.09;5028108;27;1990;-76
2023/09/06 00:36:15;;;;;;;;;;;;;;;18.58;72.51;101398.16;5024477;28;1342;-76
2023/09/06 00:39:06;;;;;;;;;;;;;;;18.57;72.76;101398.41;5027387;27;1054;-77
2023/09/06 00:42:00;;;;;;;;;;;;;;;18.56;72.34;101403.06;5028542;28;1372;-78
2023/09/06 00:44:51;;;;;;;;;;;;;;;18.55;72.69;101411.47;5029180;28;1361;-77
2023/09/06 00:47:44;;;;;;;;;;;;;;;18.54;72.43;101412.56;5031174;28;1948;-77
2023/09/06 00:50:36;;;;;;;;;;;;;;;18.52;72.65;101429.16;5033460;27;1999;-78
2023/09/06 00:53:27;;;;;;;;;;;;;;;18.51;72.26;101426.72;5030112;28;1549;-77
2023/09/06 00:56:18;;;;;;;;;;;;;;;18.50;72.46;101427.75;5029747;28;1563;-77
2023/09/06 00:59:12;;;;;;;;;;;;;;;18.49;72.23;101428.84;5030070;28;1812;-77
2023/09/06 01:02:04;;;;;;;;;;;;;;;18.47;72.57;101442.75;5028613;28;1438;-77
2023/09/06 01:04:55;;;;;;;;;;;;;;;18.47;72.46;101440.03;5024702;28;2088;-76
2023/09/06 01:07:47;;;;;;;;;;;;;;;18.45;72.59;101444.91;5017531;28;2149;-75
2023/09/06 01:10:39;;;;;;;;;;;;;;;18.44;72.63;101445.97;5019850;28;2108;-75
2023/09/06 01:13:31;;;;;;;;;;;;;;;18.44;72.31;101450.59;5018474;28;2324;-76
2023/09/06 01:16:23;;;;;;;;;;;;;;;18.42;72.38;101447.31;5027962;28;1967;-77
2023/09/06 01:19:15;;;;;;;;;;;;;;;18.41;72.33;101451.91;5027380;28;1337;-77
2023/09/06 01:22:07;;;;;;;;;;;;;;;18.39;72.45;101457.63;5021522;28;2117;-78
2023/09/06 01:24:59;;;;;;;;;;;;;;;18.38;72.42;101464.19;5017439;28;2209;-77
2023/09/06 01:27:51;;;;;;;;;;;;;;;18.38;72.40;101468.78;5015703;28;5875;-76
2023/09/06 01:30:43;;;;;;;;;;;;;;;18.36;72.42;101465.50;5019509;28;5199;-76
2023/09/06 01:33:35;;;;;;;;;;;;;;;18.34;72.54;101470.38;5015640;28;4883;-76
2023/09/06 01:36:27;;;;;;;;;;;;;;;18.33;72.33;101471.44;5024695;27;2200;-78
2023/09/06 01:39:19;;;;;;;;;;;;;;;18.33;72.24;101477.72;5015555;28;2113;-75
2023/09/06 01:42:11;;;;;;;;;;;;;;;18.31;72.29;101477.13;5017801;28;2148;-77
2023/09/06 01:45:03;;;;;;;;;;;;;;;18.31;72.37;101487.22;5016690;28;2172;-76
2023/09/06 01:47:55;;;;;;;;;;;;;;;18.29;72.31;101482.00;5020381;28;2486;-76
2023/09/06 01:50:47;;;;;;;;;;;;;;;18.28;72.15;101488.53;5016318;28;2447;-77
2023/09/06 01:53:40;;;;;;;;;;;;;;;18.27;72.25;101486.06;5015862;28;2175;-77
2023/09/06 01:56:32;;;;;;;;;;;;;;;18.28;71.92;101499.44;5015758;28;2230;-77
2023/09/06 01:59:24;;;;;;;;;;;;;;;18.25;72.20;101505.41;5017083;28;2442;-78
2023/09/06 02:02:16;;;;;;;;;;;;;;;18.24;72.04;101506.47;5027138;28;1934;-77
2023/09/06 02:05:08;;;;;;;;;;;;;;;18.23;72.25;101514.91;5030100;28;974;-77
2023/09/06 02:07:59;;;;;;;;;;;;;;;18.22;71.94;101513.25;5029103;28;1910;-77
2023/09/06 02:10:51;;;;;;;;;;;;;;;18.21;72.19;101519.78;5030184;28;1354;-76
2023/09/06 02:13:43;;;;;;;;;;;;;;;18.21;72.05;101527.97;5028620;28;2002;-77
2023/09/06 02:16:35;;;;;;;;;;;;;;;18.19;72.19;101522.75;5028924;28;1409;-77
2023/09/06 02:19:27;;;;;;;;;;;;;;;18.18;72.05;101529.28;5028781;28;1135;-77
2023/09/06 02:22:19;;;;;;;;;;;;;;;18.17;71.88;101538.50;5027853;28;1936;-77
2023/09/06 02:25:11;;;;;;;;;;;;;;;18.16;71.97;101539.59;5024108;28;1047;-76
2023/09/06 02:28:04;;;;;;;;;;;;;;;18.14;71.87;101548.00;5070342;28;1902;-77
2023/09/06 02:30:56;;;;;;;;;;;;;;;18.12;71.86;101547.44;5027543;28;2058;-76
2023/09/06 02:33:48;;;;;;;;;;;;;;;18.12;72.00;101552.91;5019176;28;2266;-78
2023/09/06 02:36:40;;;;;;;;;;;;;;;18.11;71.97;101551.22;5015919;28;3256;-78
2023/09/06 02:39:32;;;;;;;;;;;;;;;18.12;71.95;101563.00;5014575;28;2427;-77
2023/09/06 02:42:24;;;;;;;;;;;;;;;18.09;71.80;101575.19;5013249;28;4857;-76
2023/09/06 02:45:16;;;;;;;;;;;;;;;18.10;71.61;101573.31;5007189;28;5680;-76
2023/09/06 02:48:12;;;;;;;;;;;;;;;18.09;71.58;101579.84;5019160;28;2366;-76
2023/09/06 02:51:04;;;;;;;;;;;;;;;18.07;71.78;101581.97;5016266;28;2474;-76
2023/09/06 02:53:57;;;;;;;;;;;;;;;18.07;71.64;101576.50;5015659;28;2132;-76
2023/09/06 02:56:48;;;;;;;;;;;;;;;18.05;71.86;101578.66;5015807;28;2173;-76
2023/09/06 02:59:40;;;;;;;;;;;;;;;17.48;71.80;101489.56;5018573;28;2254;-76
2023/09/06 03:02:33;;;;;;;;;;;;;;;18.02;71.59;101579.97;5026095;28;2073;-75
2023/09/06 03:05:27;;;;;;;;;;;;;;;18.03;71.60;101583.50;5032326;28;1559;-76
2023/09/06 03:08:18;;;;;;;;;;;;;;;18.02;71.49;101584.59;5024520;28;1902;-77
2023/09/06 03:11:11;;;;;;;;;;;;;;;18.01;71.53;101577.50;5026121;28;1498;-76
2023/09/06 03:14:03;;;;;;;;;;;;;;;17.99;71.69;101580.44;5030381;28;1975;-77
2023/09/06 03:16:55;;;;;;;;;;;;;;;17.99;71.68;101585.91;5031251;28;1403;-76
2023/09/06 03:19:53;;;;;;;;;;;;;;;17.98;71.69;101589.72;5026558;28;2069;-78
2023/09/06 03:22:46;;;;;;;;;;;;;;;17.97;71.57;101593.50;5018533;28;2378;-76
2023/09/06 03:25:40;;;;;;;;;;;;;;;17.97;71.30;101600.84;5018929;28;2082;-75
2023/09/06 03:28:31;;;;;;;;;;;;;;;17.95;71.56;101598.38;5019817;28;2094;-75
2023/09/06 03:31:24;;;;;;;;;;;;;;;17.96;71.55;101604.66;5020369;28;2260;-76
2023/09/06 03:34:16;;;;;;;;;;;;;;;17.94;71.31;101607.59;5023169;28;2344;-76
2023/09/06 03:37:10;;;;;;;;;;;;;;;17.92;71.55;101610.59;5021045;28;2215;-77
2023/09/06 03:40:01;;;;;;;;;;;;;;;17.92;71.50;101615.22;5031785;28;1771;-77
2023/09/06 03:42:53;;;;;;;;;;;;;;;17.91;71.30;101621.72;5019111;28;2145;-76
2023/09/06 03:45:45;;;;;;;;;;;;;;;17.90;71.39;101637.25;5021067;28;2309;-75
2023/09/06 03:48:37;;;;;;;;;;;;;;;17.90;71.21;101641.88;5020593;28;2200;-77
2023/09/06 03:51:29;;;;;;;;;;;;;;;17.89;71.39;101638.31;5021802;28;2085;-75
2023/09/06 03:54:22;;;;;;;;;;;;;;;17.88;71.26;101644.00;5017988;28;2228;-75
2023/09/06 03:57:13;;;;;;;;;;;;;;;17.86;71.38;101643.44;5020214;28;2197;-75
2023/09/06 04:02:55;;;;;;;;;;;;;;;17.85;71.22;101648.06;4984973;27;1485072;-77
2023/09/06 04:05:47;;;;;;;;;;;;;;;17.84;71.06;101651.84;5037099;28;2154;-76
2023/09/06 04:08:39;;;;;;;;;;;;;;;17.83;70.97;101666.53;5031440;28;2183;-75
2023/09/06 04:11:31;;;;;;;;;;;;;;;17.82;70.91;101670.31;5032433;28;2193;-78
2023/09/06 04:14:23;;;;;;;;;;;;;;;17.81;70.96;101676.03;5040399;28;2221;-76
2023/09/06 04:17:15;;;;;;;;;;;;;;;17.82;70.91;101683.13;5040353;28;1293;-77
2023/09/06 04:20:18;;;;;;;;;;;;;;;17.80;71.08;101677.94;5039022;28;1686;-77
2023/09/06 04:23:12;;;;;;;;;;;;;;;17.79;71.07;101676.25;5039151;28;1726;-78
2023/09/06 04:26:04;;;;;;;;;;;;;;;17.80;70.88;101688.00;5045432;28;1383;-78
2023/09/06 04:29:03;;;;;;;;;;;;;;;17.78;70.98;101685.50;5039622;28;1707;-78
2023/09/06 04:31:54;;;;;;;;;;;;;;;17.76;71.04;101681.31;5043027;28;1305;-79
2023/09/06 04:34:46;;;;;;;;;;;;;;;17.76;70.70;101687.59;5032186;28;2262;-76
2023/09/06 04:37:39;;;;;;;;;;;;;;;17.76;70.99;101678.59;5030925;28;2319;-78
2023/09/06 04:40:31;;;;;;;;;;;;;;;17.75;70.83;101683.22;5030557;28;2253;-78
2023/09/06 04:43:23;;;;;;;;;;;;;;;17.73;70.62;101685.34;5034576;28;2545;-78
2023/09/06 04:46:15;;;;;;;;;;;;;;;17.73;70.68;101692.69;5036179;28;5464;-76
2023/09/06 04:49:09;;;;;;;;;;;;;;;17.71;70.76;101698.41;5041751;28;5866;-77
2023/09/06 04:52:01;;;;;;;;;;;;;;;17.69;70.52;101693.19;5039306;28;5549;-76
2023/09/06 04:54:53;;;;;;;;;;;;;;;17.67;70.66;101692.59;5046934;28;1503;-78
2023/09/06 04:57:45;;;;;;;;;;;;;;;17.67;70.52;101697.22;5041700;28;1639;-78
2023/09/06 05:00:38;;;;;;;;;;;;;;;17.67;70.51;101697.22;5043598;28;2020;-78
2023/09/06 05:03:31;;;;;;;;;;;;;;;17.64;70.59;101703.13;5047688;28;5637;-75
2023/09/06 05:06:22;;;;;;;;;;;;;;;17.63;70.57;101698.78;5036018;28;3791;-75
2023/09/06 05:09:15;;;;;;;;;;;;;;;17.62;70.58;101703.41;5039868;28;1796;-77
2023/09/06 05:12:07;;;;;;;;;;;;;;;17.58;70.62;101699.47;5035999;28;1938;-77
2023/09/06 05:15:00;;;;;;;;;;;;;;;17.56;70.65;101708.94;5026781;28;2061;-76
2023/09/06 05:17:53;;;;;;;;;;;;;;;17.55;70.65;101712.75;5020687;28;2577;-77
2023/09/06 05:20:45;;;;;;;;;;;;;;;17.53;70.70;101710.28;5020352;28;2010;-78
2023/09/06 05:23:37;;;;;;;;;;;;;;;17.52;70.80;101711.31;5027911;28;2018;-80
2023/09/06 05:26:29;;;;;;;;;;;;;;;17.50;70.69;101724.38;5028623;28;1731;-76
2023/09/06 05:29:21;;;;;;;;;;;;;;;17.49;70.62;101730.88;5021291;28;2052;-77
2023/09/06 05:32:18;;;;;;;;;;;;;;;17.48;70.71;101735.50;5024158;28;1774;-77
2023/09/06 05:35:10;;;;;;;;;;;;;;;17.45;70.61;101732.41;5026432;28;2028;-76
2023/09/06 05:38:03;;;;;;;;;;;;;;;17.43;70.67;101731.81;5034231;28;2007;-76
2023/09/06 05:40:55;;;;;;;;;;;;;;;17.43;70.84;101727.19;5024668;28;1902;-77
2023/09/06 05:43:47;;;;;;;;;;;;;;;17.42;70.76;101730.16;5026682;28;2271;-77
2023/09/06 05:46:39;;;;;;;;;;;;;;;17.42;70.47;101741.88;5026835;28;1359;-77
2023/09/06 05:49:31;;;;;;;;;;;;;;;17.40;70.70;101745.91;5028766;28;2203;-76
2023/09/06 05:52:23;;;;;;;;;;;;;;;17.39;70.71;101741.53;5018222;28;2576;-76
2023/09/06 05:55:15;;;;;;;;;;;;;;;17.37;70.48;101744.47;5023708;28;2152;-76
2023/09/06 05:58:06;;;;;;;;;;;;;;;17.38;70.65;101742.56;5026021;28;2217;-77
2023/09/06 06:00:58;;;;;;;;;;;;;;;17.32;70.68;101749.78;5024310;28;2056;-78
2023/09/06 06:03:50;;;;;;;;;;;;;;;17.32;70.70;101743.53;5025727;28;2115;-77
2023/09/06 06:06:42;;;;;;;;;;;;;;;17.31;70.60;101753.59;5024170;28;1376;-79
2023/09/06 06:09:34;;;;;;;;;;;;;;;17.29;70.59;101749.44;5032269;28;1694;-76
2023/09/06 06:12:26;;;;;;;;;;;;;;;17.28;70.45;101751.34;5030770;28;1935;-79
2023/09/06 06:15:18;;;;;;;;;;;;;;;17.27;70.50;101749.69;5032000;28;2011;-76
2023/09/06 06:18:12;;;;;;;;;;;;;;;17.25;70.55;101771.69;5023290;28;2021;-79
2023/09/06 06:21:04;;;;;;;;;;;;;;;17.24;70.67;101758.34;5116053;23;3873;-77
2023/09/06 06:23:56;;;;;;;;;;;;;;;17.24;70.51;101767.31;5029615;28;1828;-76
2023/09/06 06:26:49;;;;;;;;;;;;;;;17.20;70.57;101760.66;5033369;28;1813;-77
2023/09/06 06:29:40;;;;;;;;;;;;;;;17.19;70.39;101761.75;5031188;28;2181;-76
2023/09/06 06:32:32;;;;;;;;;;;;;;;17.18;70.49;101762.81;5034541;28;1345;-76
2023/09/06 06:35:24;;;;;;;;;;;;;;;17.16;70.47;101769.56;5033869;28;2253;-76
2023/09/06 06:38:15;;;;;;;;;;;;;;;17.16;70.49;101775.81;5031551;28;913;-77
2023/09/06 06:41:07;;;;;;;;;;;;;;;17.15;70.64;101785.06;5031937;28;1963;-77
2023/09/06 06:43:59;;;;;;;;;;;;;;;17.14;70.76;101777.13;5033153;28;1738;-77
2023/09/06 06:46:51;;;;;;;;;;;;;;;17.14;70.54;101779.84;5031649;28;1659;-76
2023/09/06 06:49:43;;;;;;;;;;;;;;;17.12;70.58;101782.81;5029306;28;1536;-76
2023/09/06 06:52:36;;;;;;;;;;;;;;;17.11;70.51;101781.13;5031954;28;1916;-75
2023/09/06 06:55:28;;;;;;;;;;;;;;;17.10;70.58;101793.09;5029832;28;1943;-75
2023/09/06 06:58:19;;;;;;;;;;;;;;;17.09;70.52;101791.44;5031306;28;1955;-77
2023/09/06 07:01:11;;;;;;;;;;;;;;;17.08;70.58;101800.66;5028248;28;2010;-75
2023/09/06 07:04:04;;;;;;;;;;;;;;;17.08;70.62;101805.28;5027813;28;1947;-76
2023/09/06 07:06:55;;;;;;;;;;;;;;;17.06;70.63;101807.38;5018789;28;3795;-77
2023/09/06 07:09:47;;;;;;;;;;;;;;;17.07;70.54;101806.34;5016487;28;2335;-74
2023/09/06 07:12:39;;;;;;;;;;;;;;;17.07;70.61;101801.72;5014481;28;2828;-75
2023/09/06 07:15:31;;;;;;;;;;;;;;;17.04;70.52;101802.19;5013326;28;5500;-75
2023/09/06 07:18:23;;;;;;;;;;;;;;;17.04;70.50;101804.91;5014453;28;5643;-75
2023/09/06 07:21:15;;;;;;;;;;;;;;;17.01;70.69;101798.03;5015291;28;4899;-75
2023/09/06 07:24:09;;;;;;;;;;;;;;;17.00;70.68;101796.38;5017709;28;2593;-76
2023/09/06 07:27:02;;;;;;;;;;;;;;;17.01;70.50;101799.94;5015135;28;2505;-76
2023/09/06 07:29:54;;;;;;;;;;;;;;;17.00;70.38;101809.13;5015391;28;2535;-77
2023/09/06 07:32:46;;;;;;;;;;;;;;;17.00;70.37;101809.13;5014916;28;2587;-77
2023/09/06 07:35:38;;;;;;;;;;;;;;;16.99;70.42;101802.88;5014857;28;5290;-77
2023/09/06 07:38:31;;;;;;;;;;;;;;;16.98;70.73;101809.38;5016856;28;2880;-77
2023/09/06 07:41:25;;;;;;;;;;;;;;;16.98;70.65;101806.66;5013746;28;2525;-75
2023/09/06 07:44:17;;;;;;;;;;;;;;;16.98;70.60;101811.28;5017378;28;2548;-76
2023/09/06 07:47:09;;;;;;;;;;;;;;;16.97;70.54;101805.03;5014465;28;2520;-77
2023/09/06 07:50:01;;;;;;;;;;;;;;;16.97;70.58;101809.59;5015559;28;2667;-76
2023/09/06 07:52:53;;;;;;;;;;;;;;;16.97;70.56;101815.91;5014129;28;2449;-76
2023/09/06 07:55:45;;;;;;;;;;;;;;;16.97;70.64;101817.78;5015667;28;2493;-78
2023/09/06 07:58:37;;;;;;;;;;;;;;;16.96;70.58;101808.78;5017148;28;2734;-76
2023/09/06 08:01:29;;;;;;;;;;;;;;;16.96;70.63;101802.50;5015518;28;2462;-77
2023/09/06 08:04:21;;;;;;;;;;;;;;;16.97;70.46;101796.00;5017905;28;2548;-77
2023/09/06 08:07:13;;;;;;;;;;;;;;;16.96;70.59;101794.34;5014978;28;2648;-76
2023/09/06 08:10:09;;;;;;;;;;;;;;;16.95;70.52;101793.53;5016675;28;2514;-78
2023/09/06 08:13:00;;;;;;;;;;;;;;;16.96;70.37;101791.63;5015478;28;2516;-78
2023/09/06 08:15:52;;;;;;;;;;;;;;;16.96;70.46;101802.50;5015484;28;2552;-76
2023/09/06 08:18:44;;;;;;;;;;;;;;;16.94;70.58;101791.88;5017771;28;2501;-75
2023/09/06 08:21:36;;;;;;;;;;;;;;;16.95;70.55;101790.81;5016671;28;2546;-76
2023/09/06 08:24:30;;;;;;;;;;;;;;;16.95;70.39;101806.31;5014574;28;2595;-76
2023/09/06 08:27:22;;;;;;;;;;;;;;;16.95;70.38;101803.59;5026435;28;2451;-77
2023/09/06 08:30:14;;;;;;;;;;;;;;;16.95;70.46;101798.16;5027166;28;1623;-77
2023/09/06 08:33:06;;;;;;;;;;;;;;;16.95;70.55;101807.13;5025986;28;2044;-78
2023/09/06 08:35:59;;;;;;;;;;;;;;;16.95;70.55;101803.59;5028245;28;1349;-77
2023/09/06 08:38:51;;;;;;;;;;;;;;;16.95;70.46;101815.28;5032615;28;1692;-75
2023/09/06 08:41:43;;;;;;;;;;;;;;;16.95;70.58;101814.47;5030038;28;1902;-77
2023/09/06 08:44:35;;;;;;;;;;;;;;;16.94;70.48;101827.25;5025499;28;1996;-76
2023/09/06 08:47:27;;;;;;;;;;;;;;;16.95;70.33;101828.91;5029315;28;1376;-77
2023/09/06 08:50:18;;;;;;;;;;;;;;;16.96;70.53;101827.84;5034801;28;1397;-76
2023/09/06 08:53:10;;;;;;;;;;;;;;;16.96;70.45;101829.72;5035861;28;1576;-77
2023/09/06 08:56:03;;;;;;;;;;;;;;;16.96;70.46;101830.56;5033697;28;1055;-77
2023/09/06 08:58:54;;;;;;;;;;;;;;;16.96;70.54;101825.09;5034562;28;1635;-75
2023/09/06 09:01:46;;;;;;;;;;;;;;;16.95;70.37;101828.06;5035928;28;1969;-75
2023/09/06 09:04:40;;;;;;;;;;;;;;;16.96;70.44;101832.44;5035268;28;1773;-78
2023/09/06 09:07:32;;;;;;;;;;;;;;;16.96;70.36;101836.00;5033799;28;1844;-75
2023/09/06 09:10:26;;;;;;;;;;;;;;;16.97;70.52;101844.97;5034829;28;1988;-76
2023/09/06 09:13:18;;;;;;;;;;;;;;;16.97;70.36;101847.69;5030911;28;1827;-76
2023/09/06 09:16:10;;;;;;;;;;;;;;;16.96;70.54;101841.44;5028707;28;1947;-77
2023/09/06 09:19:03;;;;;;;;;;;;;;;16.98;70.52;101841.22;5031662;28;1639;-77
2023/09/06 09:21:56;;;;;;;;;;;;;;;16.98;70.35;101843.94;5025372;28;2290;-77
2023/09/06 09:24:48;;;;;;;;;;;;;;;16.98;70.52;101850.22;5018774;28;2320;-78
2023/09/06 09:27:40;;;;;;;;;;;;;;;16.99;70.29;101843.69;5024281;28;2476;-78
2023/09/06 09:30:33;;;;;;;;;;;;;;;16.99;70.47;101843.69;5022105;28;2476;-76
2023/09/06 09:33:24;;;;;;;;;;;;;;;17.00;70.43;101847.25;5022907;28;3547;-75
2023/09/06 09:36:16;;;;;;;;;;;;;;;17.01;70.47;101852.47;5018829;28;2255;-74
2023/09/06 09:39:08;;;;;;;;;;;;;;;17.01;70.58;101851.63;5016767;28;2197;-78
2023/09/06 09:42:00;;;;;;;;;;;;;;;17.01;70.40;101848.91;5017483;28;2264;-78
2023/09/06 09:44:52;;;;;;;;;;;;;;;17.01;70.44;101846.19;5020057;28;2241;-77
2023/09/06 09:47:44;;;;;;;;;;;;;;;17.02;70.29;101845.94;5013749;28;5567;-76
2023/09/06 09:50:36;;;;;;;;;;;;;;;17.03;70.42;101846.81;5014590;28;2319;-78
2023/09/06 09:53:28;;;;;;;;;;;;;;;17.03;70.36;101846.81;5017724;28;4278;-77
2023/09/06 09:56:21;;;;;;;;;;;;;;;17.03;70.52;101855.78;5017645;28;2240;-76
2023/09/06 09:59:13;;;;;;;;;;;;;;;17.04;70.37;101867.50;5029148;28;2116;-77
2023/09/06 10:02:05;;;;;;;;;;;;;;;17.05;70.44;101863.72;5019681;28;2825;-75
2023/09/06 10:04:57;;;;;;;;;;;;;;;17.06;70.50;101864.53;5024482;28;4486;-78
2023/09/06 10:07:49;;;;;;;;;;;;;;;17.05;70.52;101863.72;5032605;28;1938;-76
2023/09/06 10:10:41;;;;;;;;;;;;;;;17.07;70.36;101858.06;5032599;28;1679;-77
2023/09/06 10:13:33;;;;;;;;;;;;;;;17.08;70.46;101859.69;5026619;28;1771;-77
2023/09/06 10:16:25;;;;;;;;;;;;;;;17.08;70.24;101855.09;5029500;28;2209;-76
2023/09/06 10:19:17;;;;;;;;;;;;;;;17.10;70.39;101854.88;5029107;28;2002;-76
2023/09/06 10:22:09;;;;;;;;;;;;;;;17.10;70.58;101854.88;5032829;28;1954;-76
2023/09/06 10:25:01;;;;;;;;;;;;;;;17.10;70.50;101854.88;5030236;28;1870;-78
2023/09/06 10:27:54;;;;;;;;;;;;;;;17.10;70.55;101861.13;5027691;28;2103;-76
2023/09/06 10:30:46;;;;;;;;;;;;;;;17.11;70.58;101862.78;5025674;28;2273;-79
2023/09/06 10:33:39;;;;;;;;;;;;;;;17.11;70.51;101853.78;5015510;28;2402;-76
2023/09/06 10:36:32;;;;;;;;;;;;;;;17.12;70.54;101861.75;5018369;28;2232;-73
2023/09/06 10:39:26;;;;;;;;;;;;;;;17.12;70.63;101859.03;5018673;28;2243;-76
2023/09/06 10:42:16;;;;;;;;;;;;;;;17.13;70.51;101862.56;5019582;28;3615;-76
2023/09/06 10:45:07;;;;;;;;;;;;;;;17.14;70.48;101859.59;5016900;28;2323;-76
2023/09/06 10:48:00;;;;;;;;;;;;;;;17.15;70.54;101860.47;5029681;28;2130;-77
2023/09/06 10:50:52;;;;;;;;;;;;;;;17.15;70.48;101861.28;5029261;28;2015;-76
2023/09/06 10:53:44;;;;;;;;;;;;;;;17.14;70.45;101856.88;5013326;28;2214;-76
2023/09/06 10:56:36;;;;;;;;;;;;;;;17.16;70.54;101856.66;5022509;28;2764;-77
2023/09/06 10:59:27;;;;;;;;;;;;;;;17.16;70.53;101857.50;5032116;28;1672;-76
2023/09/06 11:02:19;;;;;;;;;;;;;;;17.17;70.46;101856.41;5032778;28;1977;-75
2023/09/06 11:05:14;;;;;;;;;;;;;;;17.17;70.49;101853.69;5032094;28;1679;-77
2023/09/06 11:08:06;;;;;;;;;;;;;;;17.18;70.56;101855.38;5030471;28;1916;-75
2023/09/06 11:10:58;;;;;;;;;;;;;;;17.19;70.63;101854.28;5029204;28;1771;-77
2023/09/06 11:13:49;;;;;;;;;;;;;;;17.19;70.50;101858.91;5031087;28;1687;-74
2023/09/06 11:16:41;;;;;;;;;;;;;;;17.20;70.63;101857.84;5030903;28;1746;-77
2023/09/06 11:19:35;;;;;;;;;;;;;;;17.21;70.56;101857.63;5012751;28;3574;-76
2023/09/06 11:22:27;;;;;;;;;;;;;;;17.21;70.49;101859.53;5030339;28;1961;-76
2023/09/06 11:25:18;;;;;;;;;;;;;;;17.22;70.52;101859.28;5031199;28;2125;-75
2023/09/06 11:28:10;;;;;;;;;;;;;;;17.23;70.51;101854.66;5027807;28;1999;-77
2023/09/06 11:31:04;;;;;;;;;;;;;;;17.23;70.60;101857.38;5031088;28;1667;-77
2023/09/06 11:33:57;;;;;;;;;;;;;;;17.24;70.65;101859.88;5031275;28;1480;-75
2023/09/06 11:36:51;;;;;;;;;;;;;;;17.24;70.70;101853.63;5029523;28;2454;-77
2023/09/06 11:39:42;;;;;;;;;;;;;;;17.24;70.58;101851.72;5029799;28;1511;-75
2023/09/06 11:42:34;;;;;;;;;;;;;;;17.26;70.72;101848.75;5028137;28;1957;-76
2023/09/06 11:45:26;;;;;;;;;;;;;;;17.27;70.62;101838.72;5032664;28;957;-77
2023/09/06 11:48:24;;;;;;;;;;;;;;;17.28;70.65;101837.63;5030402;28;1970;-75
2023/09/06 11:51:18;;;;;;;;;;;;;;;17.29;70.45;101842.00;5029187;28;1574;-77
2023/09/06 11:54:10;;;;;;;;;;;;;;;17.30;70.72;101841.78;5029928;28;1763;-77
2023/09/06 11:57:03;;;;;;;;;;;;;;;17.30;70.67;101836.34;5030748;28;1820;-77
2023/09/06 11:59:57;;;;;;;;;;;;;;;17.30;70.74;101833.63;5025445;28;3546;-76
2023/09/06 12:02:49;;;;;;;;;;;;;;;17.32;70.49;101833.38;5027073;28;2583;-77
2023/09/06 12:05:41;;;;;;;;;;;;;;;17.32;70.66;101823.31;5026244;28;1884;-76
2023/09/06 12:08:33;;;;;;;;;;;;;;;17.34;70.78;101823.09;5027812;28;2266;-77
2023/09/06 12:11:27;;;;;;;;;;;;;;;17.34;70.44;101810.31;5019123;28;2492;-76
2023/09/06 12:14:19;;;;;;;;;;;;;;;17.35;70.61;101808.41;5014609;28;2459;-76
2023/09/06 12:17:14;;;;;;;;;;;;;;;17.36;70.79;101818.25;5011087;28;5733;-76
2023/09/06 12:20:10;;;;;;;;;;;;;;;17.35;70.82;101817.38;5015759;28;2347;-75
2023/09/06 12:23:03;;;;;;;;;;;;;;;17.37;70.56;101815.28;5016429;28;5724;-77
2023/09/06 12:25:55;;;;;;;;;;;;;;;17.38;70.69;101816.09;5018709;28;2188;-76
2023/09/06 12:28:47;;;;;;;;;;;;;;;17.40;70.75;101813.97;5028056;28;2151;-76
2023/09/06 12:31:39;;;;;;;;;;;;;;;17.41;70.60;101812.91;5026583;28;2185;-76
2023/09/06 12:34:31;;;;;;;;;;;;;;;17.42;70.56;101804.50;5022142;28;3423;-77
2023/09/06 12:37:24;;;;;;;;;;;;;;;17.43;70.79;101799.91;5020919;28;2173;-76
2023/09/06 12:40:16;;;;;;;;;;;;;;;17.44;70.58;101796.94;5028778;28;2195;-77
2023/09/06 12:43:08;;;;;;;;;;;;;;;17.45;70.55;101787.69;5031880;28;1922;-76
2023/09/06 12:46:00;;;;;;;;;;;;;;;17.46;70.63;101788.53;5032429;28;2074;-77
2023/09/06 12:48:52;;;;;;;;;;;;;;;17.47;70.71;101790.16;5030754;28;957;-75
2023/09/06 12:51:47;;;;;;;;;;;;;;;17.48;70.73;101789.94;5034356;28;1449;-78
2023/09/06 12:54:39;;;;;;;;;;;;;;;17.49;70.65;101783.44;5032505;28;2196;-77
2023/09/06 12:57:31;;;;;;;;;;;;;;;17.51;70.83;101780.47;5031969;28;2757;-77
2023/09/06 13:00:30;;;;;;;;;;;;;;;17.51;70.79;101775.03;5034189;28;1222;-76
2023/09/06 13:03:22;;;;;;;;;;;;;;;17.53;70.62;101777.50;5020870;28;1902;-77
2023/09/06 13:06:14;;;;;;;;;;;;;;;17.55;70.67;101780.84;5028117;28;1789;-77
2023/09/06 13:09:06;;;;;;;;;;;;;;;17.56;70.71;101782.47;5034122;28;984;-77
2023/09/06 13:11:58;;;;;;;;;;;;;;;17.57;70.72;101776.81;5023595;28;2251;-76
2023/09/06 13:14:49;;;;;;;;;;;;;;;17.58;70.63;101778.47;5036101;28;2402;-75
2023/09/06 13:17:41;;;;;;;;;;;;;;;17.59;70.68;101771.97;5033809;28;1899;-76
2023/09/06 13:20:33;;;;;;;;;;;;;;;17.61;70.97;101769.00;5035251;28;1473;-78
2023/09/06 13:23:25;;;;;;;;;;;;;;;17.62;70.70;101771.50;5031736;28;1962;-75
2023/09/06 13:26:17;;;;;;;;;;;;;;;17.64;71.01;101777.50;5021027;28;2176;-75
2023/09/06 13:29:09;;;;;;;;;;;;;;;17.65;70.79;101771.00;5018326;28;2694;-78
2023/09/06 13:32:01;;;;;;;;;;;;;;;17.67;70.73;101765.31;5022499;28;2295;-75
2023/09/06 13:34:54;;;;;;;;;;;;;;;17.68;70.83;101767.81;5031595;28;2185;-76
2023/09/06 13:37:46;;;;;;;;;;;;;;;17.69;70.90;101766.75;5035729;28;974;-76
2023/09/06 13:40:38;;;;;;;;;;;;;;;17.72;71.05;101754.53;5035042;28;1536;-75
2023/09/06 13:43:30;;;;;;;;;;;;;;;17.73;71.00;101752.63;5030589;28;1956;-78
2023/09/06 13:46:22;;;;;;;;;;;;;;;17.75;70.79;101747.78;5027824;28;1497;-76
2023/09/06 13:49:14;;;;;;;;;;;;;;;17.76;71.08;101739.38;5033050;28;1773;-77
2023/09/06 13:52:06;;;;;;;;;;;;;;;17.77;70.83;101743.75;5032778;28;2018;-75
2023/09/06 13:54:57;;;;;;;;;;;;;;;17.79;70.90;101744.38;5035493;28;1086;-75
2023/09/06 13:57:49;;;;;;;;;;;;;;;17.82;70.80;101743.06;5025549;28;2061;-76
2023/09/06 14:00:42;;;;;;;;;;;;;;;17.82;71.14;101732.16;5017376;28;2101;-77
2023/09/06 14:03:34;;;;;;;;;;;;;;;17.85;70.97;101742.59;5018105;28;2311;-77
2023/09/06 14:06:26;;;;;;;;;;;;;;;17.86;71.12;101741.53;5029650;28;2153;-76
2023/09/06 14:09:18;;;;;;;;;;;;;;;17.87;71.19;101737.72;5034268;28;1576;-76
2023/09/06 14:12:10;;;;;;;;;;;;;;;17.88;70.88;101742.09;5031351;28;2042;-75
2023/09/06 14:15:01;;;;;;;;;;;;;;;17.90;70.92;101742.69;5032619;28;1601;-77
2023/09/06 14:17:53;;;;;;;;;;;;;;;17.92;70.94;101735.94;5034188;28;1655;-76
2023/09/06 14:20:45;;;;;;;;;;;;;;;17.93;71.26;101734.88;5033270;28;1707;-76
2023/09/06 14:23:37;;;;;;;;;;;;;;;17.96;71.04;101727.28;5027319;28;2386;-77
2023/09/06 14:26:29;;;;;;;;;;;;;;;17.97;70.93;101724.34;5026438;28;2140;-77
2023/09/06 14:29:20;;;;;;;;;;;;;;;17.98;71.34;101725.97;5015000;28;2129;-76
2023/09/06 14:32:12;;;;;;;;;;;;;;;18.00;71.35;101721.13;5025593;28;2755;-77
2023/09/06 14:35:04;;;;;;;;;;;;;;;18.02;71.28;101723.59;5034844;28;1352;-76
2023/09/06 14:37:56;;;;;;;;;;;;;;;18.03;71.18;101730.69;5024503;28;5610;-77
2023/09/06 14:40:47;;;;;;;;;;;;;;;18.07;71.14;101731.88;5027755;28;4815;-77
2023/09/06 14:43:39;;;;;;;;;;;;;;;18.06;71.20;101725.63;5030922;28;4048;-77
2023/09/06 14:46:31;;;;;;;;;;;;;;;18.08;71.28;101728.91;5030751;28;1498;-78
2023/09/06 14:49:23;;;;;;;;;;;;;;;18.10;71.33;101737.69;5030214;28;2132;-75
2023/09/06 14:52:15;;;;;;;;;;;;;;;18.12;71.18;101737.44;5026998;28;2078;-76
2023/09/06 14:55:07;;;;;;;;;;;;;;;18.14;71.00;101738.84;5024785;28;5842;-75
2023/09/06 14:58:00;;;;;;;;;;;;;;;18.16;71.31;101741.34;5033375;28;1354;-76
2023/09/06 15:00:51;;;;;;;;;;;;;;;18.17;71.11;101737.53;5031818;28;2521;-76